sensor_id;sensor_type;location;lat;lon;timestamp;pressure;altitude;pressure_sealevel;temperature;humidity
64632;BME280;58358;50.936;0.246;2022-07-23T00:01:29;101323.28;;;15.83;53.90
64632;BME280;58358;50.936;0.246;2022-07-23T00:03:56;101323.22;;;17.39;50.45
64632;BME280;58358;50.936;0.246;2022-07-23T00:06:21;101322.79;;;15.12;56.54
64632;BME280;58358;50.936;0.246;2022-07-23T00:08:47;101318.64;;;15.62;55.39
64632;BME280;58358;50.936;0.246;2022-07-23T00:11:13;101315.24;;;16.01;53.69
64632;BME280;58358;50.936;0.246;2022-07-23T00:13:38;101307.83;;;16.04;53.53
64632;BME280;58358;50.936;0.246;2022-07-23T00:16:05;101305.07;;;17.26;50.89
64632;BME280;58358;50.936;0.246;2022-07-23T00:18:29;101311.86;;;14.86;56.43
64632;BME280;58358;50.936;0.246;2022-07-23T00:20:55;101308.88;;;16.73;52.62
64632;BME280;58358;50.936;0.246;2022-07-23T00:23:21;101305.22;;;17.48;50.08
64632;BME280;58358;50.936;0.246;2022-07-23T00:25:46;101304.91;;;17.28;51.18
64632;BME280;58358;50.936;0.246;2022-07-23T00:28:12;101307.36;;;17.43;49.98
64632;BME280;58358;50.936;0.246;2022-07-23T00:30:38;101312.49;;;16.01;53.86
64632;BME280;58358;50.936;0.246;2022-07-23T00:33:07;101321.18;;;14.20;57.54
64632;BME280;58358;50.936;0.246;2022-07-23T00:35:30;101325.61;;;16.05;53.94
64632;BME280;58358;50.936;0.246;2022-07-23T00:37:55;101326.69;;;16.99;51.84
64632;BME280;58358;50.936;0.246;2022-07-23T00:40:21;101325.67;;;15.58;54.72
64632;BME280;58358;50.936;0.246;2022-07-23T00:42:47;101327.71;;;15.73;54.56
64632;BME280;58358;50.936;0.246;2022-07-23T00:45:13;101326.07;;;15.25;55.15
64632;BME280;58358;50.936;0.246;2022-07-23T00:47:38;101326.48;;;16.72;52.02
64632;BME280;58358;50.936;0.246;2022-07-23T00:50:07;101330.84;;;16.27;52.48
64632;BME280;58358;50.936;0.246;2022-07-23T00:52:30;101333.07;;;15.49;55.07
64632;BME280;58358;50.936;0.246;2022-07-23T00:54:55;101329.93;;;16.09;52.78
64632;BME280;58358;50.936;0.246;2022-07-23T00:57:21;101330.13;;;17.28;49.96
64632;BME280;58358;50.936;0.246;2022-07-23T00:59:47;101328.74;;;17.53;49.57
64632;BME280;58358;50.936;0.246;2022-07-23T01:02:12;101331.41;;;16.73;50.99
64632;BME280;58358;50.936;0.246;2022-07-23T01:04:38;101333.79;;;15.85;54.78
64632;BME280;58358;50.936;0.246;2022-07-23T01:07:03;101336.20;;;16.46;52.56
64632;BME280;58358;50.936;0.246;2022-07-23T01:09:30;101338.79;;;16.41;53.17
64632;BME280;58358;50.936;0.246;2022-07-23T01:11:55;101333.47;;;15.58;54.97
64632;BME280;58358;50.936;0.246;2022-07-23T01:14:21;101339.20;;;15.69;54.33
64632;BME280;58358;50.936;0.246;2022-07-23T01:16:48;101339.33;;;16.17;53.12
64632;BME280;58358;50.936;0.246;2022-07-23T01:19:13;101339.10;;;15.87;52.88
64632;BME280;58358;50.936;0.246;2022-07-23T01:21:39;101339.08;;;15.25;55.22
64632;BME280;58358;50.936;0.246;2022-07-23T01:24:04;101335.48;;;16.64;51.54
64632;BME280;58358;50.936;0.246;2022-07-23T01:26:29;101335.75;;;16.64;51.09
64632;BME280;58358;50.936;0.246;2022-07-23T01:28:55;101338.42;;;16.55;52.24
64632;BME280;58358;50.936;0.246;2022-07-23T01:31:20;101335.22;;;15.63;53.52
64632;BME280;58358;50.936;0.246;2022-07-23T01:33:46;101337.03;;;16.71;51.38
64632;BME280;58358;50.936;0.246;2022-07-23T01:36:12;101340.25;;;15.98;52.91
64632;BME280;58358;50.936;0.246;2022-07-23T01:38:38;101339.99;;;17.60;49.61
64632;BME280;58358;50.936;0.246;2022-07-23T01:41:04;101343.84;;;17.43;49.73
64632;BME280;58358;50.936;0.246;2022-07-23T01:43:29;101346.25;;;14.16;56.26
64632;BME280;58358;50.936;0.246;2022-07-23T01:45:55;101343.14;;;14.66;56.82
64632;BME280;58358;50.936;0.246;2022-07-23T01:48:21;101340.36;;;15.76;53.90
64632;BME280;58358;50.936;0.246;2022-07-23T01:50:46;101337.91;;;15.97;53.72
64632;BME280;58358;50.936;0.246;2022-07-23T01:53:12;101338.29;;;15.87;53.96
64632;BME280;58358;50.936;0.246;2022-07-23T01:55:38;101339.76;;;16.78;52.11
64632;BME280;58358;50.936;0.246;2022-07-23T01:58:03;101342.62;;;16.76;52.05
64632;BME280;58358;50.936;0.246;2022-07-23T02:00:29;101340.01;;;17.64;50.12
64632;BME280;58358;50.936;0.246;2022-07-23T02:02:55;101336.76;;;17.43;51.08
64632;BME280;58358;50.936;0.246;2022-07-23T02:05:21;101335.14;;;15.88;54.51
64632;BME280;58358;50.936;0.246;2022-07-23T02:07:46;101333.28;;;14.42;58.40
64632;BME280;58358;50.936;0.246;2022-07-23T02:10:12;101326.75;;;16.17;54.30
64632;BME280;58358;50.936;0.246;2022-07-23T02:12:38;101330.23;;;17.55;50.92
64632;BME280;58358;50.936;0.246;2022-07-23T02:15:04;101330.64;;;15.93;54.07
64632;BME280;58358;50.936;0.246;2022-07-23T02:17:29;101328.69;;;16.86;52.13
64632;BME280;58358;50.936;0.246;2022-07-23T02:19:55;101330.20;;;17.51;50.11
64632;BME280;58358;50.936;0.246;2022-07-23T02:22:20;101330.21;;;16.01;53.16
64632;BME280;58358;50.936;0.246;2022-07-23T02:24:46;101332.83;;;16.19;53.22
64632;BME280;58358;50.936;0.246;2022-07-23T02:27:12;101335.52;;;15.52;55.02
64632;BME280;58358;50.936;0.246;2022-07-23T02:29:38;101338.38;;;17.78;51.11
64632;BME280;58358;50.936;0.246;2022-07-23T02:32:04;101339.62;;;17.70;50.26
64632;BME280;58358;50.936;0.246;2022-07-23T02:34:29;101337.72;;;15.24;56.70
64632;BME280;58358;50.936;0.246;2022-07-23T02:36:55;101338.35;;;16.10;54.48
64632;BME280;58358;50.936;0.246;2022-07-23T02:39:20;101341.48;;;17.14;51.32
64632;BME280;58358;50.936;0.246;2022-07-23T02:41:46;101343.94;;;17.06;52.16
64632;BME280;58358;50.936;0.246;2022-07-23T02:44:12;101341.89;;;17.62;50.84
64632;BME280;58358;50.936;0.246;2022-07-23T02:46:38;101341.53;;;18.46;48.81
64632;BME280;58358;50.936;0.246;2022-07-23T02:49:03;101339.58;;;18.16;48.65
64632;BME280;58358;50.936;0.246;2022-07-23T02:51:28;101336.39;;;18.01;49.75
64632;BME280;58358;50.936;0.246;2022-07-23T02:53:53;101333.59;;;18.43;49.21
64632;BME280;58358;50.936;0.246;2022-07-23T02:56:19;101331.66;;;18.65;48.62
64632;BME280;58358;50.936;0.246;2022-07-23T02:58:45;101328.42;;;18.91;48.21
64632;BME280;58358;50.936;0.246;2022-07-23T03:01:11;101322.58;;;18.45;49.29
64632;BME280;58358;50.936;0.246;2022-07-23T03:03:36;101324.06;;;18.43;49.04
64632;BME280;58358;50.936;0.246;2022-07-23T03:06:02;101329.19;;;17.23;50.80
64632;BME280;58358;50.936;0.246;2022-07-23T03:08:29;101330.99;;;16.64;52.63
64632;BME280;58358;50.936;0.246;2022-07-23T03:10:53;101327.75;;;18.13;49.85
64632;BME280;58358;50.936;0.246;2022-07-23T03:13:19;101331.00;;;17.09;50.99
64632;BME280;58358;50.936;0.246;2022-07-23T03:15:45;101333.89;;;17.17;52.12
64632;BME280;58358;50.936;0.246;2022-07-23T03:18:11;101332.67;;;17.41;50.48
64632;BME280;58358;50.936;0.246;2022-07-23T03:20:35;101334.37;;;15.99;54.50
64632;BME280;58358;50.936;0.246;2022-07-23T03:23:01;101337.03;;;14.87;58.13
64632;BME280;58358;50.936;0.246;2022-07-23T03:25:27;101334.51;;;15.71;56.63
64632;BME280;58358;50.936;0.246;2022-07-23T03:27:52;101334.41;;;16.95;53.15
64632;BME280;58358;50.936;0.246;2022-07-23T03:30:18;101335.09;;;17.32;52.73
64632;BME280;58358;50.936;0.246;2022-07-23T03:32:44;101331.67;;;17.95;50.77
64632;BME280;58358;50.936;0.246;2022-07-23T03:35:10;101335.46;;;17.06;51.32
64632;BME280;58358;50.936;0.246;2022-07-23T03:37:35;101339.67;;;14.51;58.46
64632;BME280;58358;50.936;0.246;2022-07-23T03:40:01;101336.23;;;14.23;60.52
64632;BME280;58358;50.936;0.246;2022-07-23T03:42:27;101334.42;;;14.86;58.18
64632;BME280;58358;50.936;0.246;2022-07-23T03:44:52;101332.36;;;15.82;55.53
64632;BME280;58358;50.936;0.246;2022-07-23T03:47:18;101330.63;;;16.44;54.44
64632;BME280;58358;50.936;0.246;2022-07-23T03:49:44;101325.30;;;16.46;54.38
64632;BME280;58358;50.936;0.246;2022-07-23T03:52:09;101323.46;;;15.89;54.19
64632;BME280;58358;50.936;0.246;2022-07-23T03:54:35;101330.86;;;14.31;59.55
64632;BME280;58358;50.936;0.246;2022-07-23T03:57:01;101320.53;;;15.63;57.20
64632;BME280;58358;50.936;0.246;2022-07-23T03:59:27;101326.44;;;15.48;57.19
64632;BME280;58358;50.936;0.246;2022-07-23T04:01:53;101323.74;;;14.85;58.06
64632;BME280;58358;50.936;0.246;2022-07-23T04:04:18;101318.76;;;16.46;54.42
64632;BME280;58358;50.936;0.246;2022-07-23T04:06:44;101319.31;;;16.14;54.93
64632;BME280;58358;50.936;0.246;2022-07-23T04:09:10;101317.48;;;15.64;54.63
64632;BME280;58358;50.936;0.246;2022-07-23T04:11:35;101317.02;;;16.60;52.88
64632;BME280;58358;50.936;0.246;2022-07-23T04:14:01;101317.44;;;16.70;52.15
64632;BME280;58358;50.936;0.246;2022-07-23T04:16:27;101320.86;;;14.86;57.07
64632;BME280;58358;50.936;0.246;2022-07-23T04:18:53;101323.68;;;14.65;57.84
64632;BME280;58358;50.936;0.246;2022-07-23T04:21:18;101328.40;;;15.28;56.01
64632;BME280;58358;50.936;0.246;2022-07-23T04:23:44;101324.51;;;16.63;53.84
64632;BME280;58358;50.936;0.246;2022-07-23T04:26:10;101328.37;;;14.66;56.88
64632;BME280;58358;50.936;0.246;2022-07-23T04:28:36;101331.66;;;14.68;56.72
64632;BME280;58358;50.936;0.246;2022-07-23T04:31:01;101333.50;;;13.74;60.51
64632;BME280;58358;50.936;0.246;2022-07-23T04:33:27;101333.69;;;16.22;54.95
64632;BME280;58358;50.936;0.246;2022-07-23T04:35:53;101339.40;;;14.53;58.10
64632;BME280;58358;50.936;0.246;2022-07-23T04:38:19;101334.05;;;15.39;56.24
64632;BME280;58358;50.936;0.246;2022-07-23T04:40:44;101331.99;;;16.43;53.09
64632;BME280;58358;50.936;0.246;2022-07-23T04:43:10;101334.02;;;17.04;50.96
64632;BME280;58358;50.936;0.246;2022-07-23T04:45:36;101337.61;;;15.99;54.84
64632;BME280;58358;50.936;0.246;2022-07-23T04:48:04;101338.55;;;16.52;52.83
64632;BME280;58358;50.936;0.246;2022-07-23T04:50:27;101343.63;;;16.85;52.38
64632;BME280;58358;50.936;0.246;2022-07-23T04:52:53;101343.90;;;16.46;52.03
64632;BME280;58358;50.936;0.246;2022-07-23T04:55:18;101346.57;;;16.73;51.80
64632;BME280;58358;50.936;0.246;2022-07-23T04:57:44;101349.73;;;16.86;51.53
64632;BME280;58358;50.936;0.246;2022-07-23T05:00:11;101348.74;;;15.60;52.88
64632;BME280;58358;50.936;0.246;2022-07-23T05:02:36;101348.81;;;15.75;53.71
64632;BME280;58358;50.936;0.246;2022-07-23T05:05:01;101354.02;;;14.41;57.43
64632;BME280;58358;50.936;0.246;2022-07-23T05:07:27;101349.74;;;13.58;59.78
64632;BME280;58358;50.936;0.246;2022-07-23T05:09:53;101353.16;;;14.11;59.48
64632;BME280;58358;50.936;0.246;2022-07-23T05:12:19;101349.75;;;13.65;59.98
64632;BME280;58358;50.936;0.246;2022-07-23T05:14:44;101348.31;;;16.52;53.45
64632;BME280;58358;50.936;0.246;2022-07-23T05:17:10;101349.24;;;17.04;50.76
64632;BME280;58358;50.936;0.246;2022-07-23T05:19:36;101352.44;;;15.53;54.87
64632;BME280;58358;50.936;0.246;2022-07-23T05:22:02;101348.95;;;15.89;54.71
64632;BME280;58358;50.936;0.246;2022-07-23T05:24:27;101349.36;;;16.92;52.16
64632;BME280;58358;50.936;0.246;2022-07-23T05:26:53;101350.33;;;16.33;53.75
64632;BME280;58358;50.936;0.246;2022-07-23T05:29:19;101348.39;;;16.15;54.08
64632;BME280;58358;50.936;0.246;2022-07-23T05:31:45;101354.56;;;15.21;55.78
64632;BME280;58358;50.936;0.246;2022-07-23T05:34:10;101354.06;;;17.21;50.74
64632;BME280;58358;50.936;0.246;2022-07-23T05:36:36;101352.85;;;17.53;50.08
64632;BME280;58358;50.936;0.246;2022-07-23T05:39:02;101352.49;;;18.07;49.08
64632;BME280;58358;50.936;0.246;2022-07-23T05:41:27;101356.12;;;18.18;49.39
64632;BME280;58358;50.936;0.246;2022-07-23T05:43:53;101355.33;;;18.97;47.94
64632;BME280;58358;50.936;0.246;2022-07-23T05:46:19;101351.42;;;18.37;48.87
64632;BME280;58358;50.936;0.246;2022-07-23T05:48:44;101350.23;;;18.57;49.30
64632;BME280;58358;50.936;0.246;2022-07-23T05:51:10;101358.48;;;18.88;47.78
64632;BME280;58358;50.936;0.246;2022-07-23T05:53:36;101363.59;;;17.75;51.92
64632;BME280;58358;50.936;0.246;2022-07-23T05:56:02;101371.36;;;16.66;53.66
64632;BME280;58358;50.936;0.246;2022-07-23T05:58:27;101373.98;;;18.38;51.03
64632;BME280;58358;50.936;0.246;2022-07-23T06:00:53;101375.94;;;18.39;50.21
64632;BME280;58358;50.936;0.246;2022-07-23T06:03:19;101376.07;;;19.08;48.86
64632;BME280;58358;50.936;0.246;2022-07-23T06:05:44;101372.50;;;19.03;49.21
64632;BME280;58358;50.936;0.246;2022-07-23T06:08:10;101368.95;;;18.12;50.98
64632;BME280;58358;50.936;0.246;2022-07-23T06:10:36;101369.23;;;18.97;51.01
64632;BME280;58358;50.936;0.246;2022-07-23T06:13:01;101365.03;;;18.90;51.64
64632;BME280;58358;50.936;0.246;2022-07-23T06:15:27;101363.64;;;19.09;51.89
64632;BME280;58358;50.936;0.246;2022-07-23T06:17:53;101369.65;;;19.02;51.53
64632;BME280;58358;50.936;0.246;2022-07-23T06:20:18;101369.85;;;19.35;51.22
64632;BME280;58358;50.936;0.246;2022-07-23T06:22:44;101360.41;;;17.98;53.30
64632;BME280;58358;50.936;0.246;2022-07-23T06:25:10;101366.89;;;18.48;51.73
64632;BME280;58358;50.936;0.246;2022-07-23T06:27:35;101370.36;;;19.38;50.68
64632;BME280;58358;50.936;0.246;2022-07-23T06:30:01;101366.74;;;19.57;50.52
64632;BME280;58358;50.936;0.246;2022-07-23T06:32:26;101356.57;;;20.53;48.18
64632;BME280;58358;50.936;0.246;2022-07-23T06:34:52;101351.39;;;20.61;47.80
64632;BME280;58358;50.936;0.246;2022-07-23T06:37:18;101355.90;;;19.48;49.46
64632;BME280;58358;50.936;0.246;2022-07-23T06:39:44;101356.66;;;20.32;48.55
64632;BME280;58358;50.936;0.246;2022-07-23T06:42:09;101360.62;;;20.33;47.99
64632;BME280;58358;50.936;0.246;2022-07-23T06:44:35;101356.03;;;20.74;47.23
64632;BME280;58358;50.936;0.246;2022-07-23T06:47:00;101356.93;;;19.43;50.72
64632;BME280;58358;50.936;0.246;2022-07-23T06:49:26;101358.35;;;19.83;50.41
64632;BME280;58358;50.936;0.246;2022-07-23T06:51:51;101358.28;;;18.93;51.03
64632;BME280;58358;50.936;0.246;2022-07-23T06:54:17;101351.11;;;20.21;48.15
64632;BME280;58358;50.936;0.246;2022-07-23T06:56:43;101351.54;;;18.69;51.36
64632;BME280;58358;50.936;0.246;2022-07-23T06:59:09;101353.57;;;19.18;50.05
64632;BME280;58358;50.936;0.246;2022-07-23T07:01:34;101354.09;;;16.17;58.39
64632;BME280;58358;50.936;0.246;2022-07-23T07:04:00;101362.42;;;18.97;51.42
64632;BME280;58358;50.936;0.246;2022-07-23T07:06:25;101361.19;;;19.67;49.79
64632;BME280;58358;50.936;0.246;2022-07-23T07:08:51;101368.82;;;19.23;50.69
64632;BME280;58358;50.936;0.246;2022-07-23T07:11:17;101368.22;;;19.64;49.97
64632;BME280;58358;50.936;0.246;2022-07-23T07:13:42;101369.89;;;16.97;56.57
64632;BME280;58358;50.936;0.246;2022-07-23T07:16:08;101367.89;;;18.97;52.80
64632;BME280;58358;50.936;0.246;2022-07-23T07:18:34;101368.50;;;18.64;53.63
64632;BME280;58358;50.936;0.246;2022-07-23T07:21:00;101368.03;;;18.83;53.06
64632;BME280;58358;50.936;0.246;2022-07-23T07:23:25;101378.25;;;17.66;55.90
64632;BME280;58358;50.936;0.246;2022-07-23T07:25:51;101379.00;;;18.32;55.23
64632;BME280;58358;50.936;0.246;2022-07-23T07:28:17;101382.65;;;17.77;54.84
64632;BME280;58358;50.936;0.246;2022-07-23T07:30:42;101383.23;;;18.10;54.06
64632;BME280;58358;50.936;0.246;2022-07-23T07:33:08;101379.83;;;18.36;52.45
64632;BME280;58358;50.936;0.246;2022-07-23T07:35:34;101384.69;;;19.42;49.98
64632;BME280;58358;50.936;0.246;2022-07-23T07:38:00;101387.68;;;19.18;49.26
64632;BME280;58358;50.936;0.246;2022-07-23T07:40:25;101387.84;;;19.88;48.24
64632;BME280;58358;50.936;0.246;2022-07-23T07:42:52;101385.06;;;19.21;47.93
64632;BME280;58358;50.936;0.246;2022-07-23T07:45:16;101383.28;;;18.00;50.08
64632;BME280;58358;50.936;0.246;2022-07-23T07:47:42;101382.77;;;18.61;48.63
64632;BME280;58358;50.936;0.246;2022-07-23T07:50:09;101388.49;;;18.25;50.60
64632;BME280;58358;50.936;0.246;2022-07-23T07:52:33;101387.26;;;18.54;50.18
64632;BME280;58358;50.936;0.246;2022-07-23T07:54:58;101385.56;;;18.64;50.35
64632;BME280;58358;50.936;0.246;2022-07-23T07:57:24;101387.07;;;19.25;48.22
64632;BME280;58358;50.936;0.246;2022-07-23T07:59:49;101392.15;;;18.15;50.04
64632;BME280;58358;50.936;0.246;2022-07-23T08:02:15;101392.69;;;18.57;48.84
64632;BME280;58358;50.936;0.246;2022-07-23T08:04:40;101393.17;;;18.57;48.54
64632;BME280;58358;50.936;0.246;2022-07-23T08:07:06;101395.51;;;18.91;48.65
64632;BME280;58358;50.936;0.246;2022-07-23T08:09:32;101401.10;;;19.38;47.37
64632;BME280;58358;50.936;0.246;2022-07-23T08:11:57;101400.78;;;18.45;47.80
64632;BME280;58358;50.936;0.246;2022-07-23T08:14:23;101394.79;;;18.80;47.97
64632;BME280;58358;50.936;0.246;2022-07-23T08:16:48;101396.78;;;19.63;47.03
64632;BME280;58358;50.936;0.246;2022-07-23T08:19:14;101397.32;;;19.21;47.09
64632;BME280;58358;50.936;0.246;2022-07-23T08:21:40;101397.94;;;17.01;51.75
64632;BME280;58358;50.936;0.246;2022-07-23T08:24:06;101393.65;;;18.99;48.54
64632;BME280;58358;50.936;0.246;2022-07-23T08:26:31;101394.19;;;20.05;45.94
64632;BME280;58358;50.936;0.246;2022-07-23T08:28:56;101396.62;;;19.47;46.58
64632;BME280;58358;50.936;0.246;2022-07-23T08:31:22;101394.01;;;19.42;46.09
64632;BME280;58358;50.936;0.246;2022-07-23T08:33:47;101387.55;;;17.83;49.37
64632;BME280;58358;50.936;0.246;2022-07-23T08:36:13;101391.62;;;18.29;49.77
64632;BME280;58358;50.936;0.246;2022-07-23T08:38:39;101387.05;;;18.82;47.91
64632;BME280;58358;50.936;0.246;2022-07-23T08:41:08;101390.76;;;18.89;46.90
64632;BME280;58358;50.936;0.246;2022-07-23T08:43:32;101396.76;;;18.86;46.53
64632;BME280;58358;50.936;0.246;2022-07-23T08:45:57;101401.81;;;19.05;46.12
64632;BME280;58358;50.936;0.246;2022-07-23T08:48:23;101402.55;;;18.99;46.42
64632;BME280;58358;50.936;0.246;2022-07-23T08:50:48;101403.47;;;19.35;45.12
64632;BME280;58358;50.936;0.246;2022-07-23T08:53:13;101401.12;;;19.91;44.70
64632;BME280;58358;50.936;0.246;2022-07-23T08:55:38;101397.94;;;20.97;42.85
64632;BME280;58358;50.936;0.246;2022-07-23T08:58:03;101397.65;;;21.02;43.01
64632;BME280;58358;50.936;0.246;2022-07-23T09:00:30;101396.48;;;20.55;43.23
64632;BME280;58358;50.936;0.246;2022-07-23T09:02:54;101400.55;;;20.99;42.56
64632;BME280;58358;50.936;0.246;2022-07-23T09:05:20;101401.18;;;20.33;44.09
64632;BME280;58358;50.936;0.246;2022-07-23T09:10:12;101399.41;;;20.60;43.25
64632;BME280;58358;50.936;0.246;2022-07-23T09:12:37;101394.78;;;22.31;40.84
64632;BME280;58358;50.936;0.246;2022-07-23T09:15:05;101400.07;;;21.65;41.43
64632;BME280;58358;50.936;0.246;2022-07-23T09:17:37;101401.18;;;19.00;46.13
64632;BME280;58358;50.936;0.246;2022-07-23T09:22:21;101398.38;;;20.71;43.69
64632;BME280;58358;50.936;0.246;2022-07-23T09:27:10;101396.23;;;19.61;45.48
64632;BME280;58358;50.936;0.246;2022-07-23T09:29:36;101390.11;;;20.62;43.32
64632;BME280;58358;50.936;0.246;2022-07-23T09:32:02;101385.47;;;21.28;42.40
64632;BME280;58358;50.936;0.246;2022-07-23T09:34:28;101393.32;;;20.27;44.61
64632;BME280;58358;50.936;0.246;2022-07-23T09:36:54;101388.75;;;19.98;45.14
64632;BME280;58358;50.936;0.246;2022-07-23T09:39:25;101390.24;;;21.08;43.02
64632;BME280;58358;50.936;0.246;2022-07-23T09:41:45;101392.49;;;22.05;42.03
64632;BME280;58358;50.936;0.246;2022-07-23T09:44:12;101389.41;;;22.18;40.52
64632;BME280;58358;50.936;0.246;2022-07-23T09:46:34;101387.53;;;21.70;42.04
64632;BME280;58358;50.936;0.246;2022-07-23T09:49:10;101387.75;;;20.90;44.24
64632;BME280;58358;50.936;0.246;2022-07-23T09:51:25;101395.65;;;20.71;44.48
64632;BME280;58358;50.936;0.246;2022-07-23T09:53:51;101402.25;;;20.39;43.97
64632;BME280;58358;50.936;0.246;2022-07-23T09:56:17;101400.94;;;21.16;42.88
64632;BME280;58358;50.936;0.246;2022-07-23T09:58:44;101404.45;;;21.24;41.80
64632;BME280;58358;50.936;0.246;2022-07-23T10:01:08;101408.90;;;21.21;41.44
64632;BME280;58358;50.936;0.246;2022-07-23T10:03:34;101412.24;;;20.09;44.13
64632;BME280;58358;50.936;0.246;2022-07-23T10:05:59;101407.49;;;21.02;43.10
64632;BME280;58358;50.936;0.246;2022-07-23T10:08:25;101412.95;;;21.17;42.76
64632;BME280;58358;50.936;0.246;2022-07-23T10:10:50;101415.91;;;21.99;41.30
64632;BME280;58358;50.936;0.246;2022-07-23T10:13:15;101412.12;;;19.72;44.86
64632;BME280;58358;50.936;0.246;2022-07-23T10:15:41;101414.60;;;21.16;42.09
64632;BME280;58358;50.936;0.246;2022-07-23T10:18:06;101416.77;;;22.19;40.94
64632;BME280;58358;50.936;0.246;2022-07-23T10:20:32;101418.20;;;21.97;40.85
64632;BME280;58358;50.936;0.246;2022-07-23T10:23:02;101417.64;;;21.33;42.17
64632;BME280;58358;50.936;0.246;2022-07-23T10:25:26;101419.55;;;20.23;44.12
64632;BME280;58358;50.936;0.246;2022-07-23T10:27:57;101417.24;;;20.70;43.74
64632;BME280;58358;50.936;0.246;2022-07-23T10:30:18;101413.35;;;20.55;43.79
64632;BME280;58358;50.936;0.246;2022-07-23T10:32:45;101409.69;;;21.00;42.35
64632;BME280;58358;50.936;0.246;2022-07-23T10:35:11;101411.07;;;20.90;42.12
64632;BME280;58358;50.936;0.246;2022-07-23T10:37:35;101411.39;;;21.06;40.98
64632;BME280;58358;50.936;0.246;2022-07-23T10:40:09;101409.21;;;21.09;40.78
64632;BME280;58358;50.936;0.246;2022-07-23T10:42:31;101416.19;;;20.47;41.95
64632;BME280;58358;50.936;0.246;2022-07-23T10:44:48;101415.42;;;21.11;40.42
64632;BME280;58358;50.936;0.246;2022-07-23T10:47:21;101420.04;;;21.26;40.50
64632;BME280;58358;50.936;0.246;2022-07-23T10:49:38;101413.06;;;21.02;40.25
64632;BME280;58358;50.936;0.246;2022-07-23T10:52:17;101422.45;;;19.68;43.15
64632;BME280;58358;50.936;0.246;2022-07-23T10:54:29;101421.01;;;20.33;41.75
64632;BME280;58358;50.936;0.246;2022-07-23T10:57:05;101412.27;;;19.99;42.37
64632;BME280;58358;50.936;0.246;2022-07-23T10:59:20;101408.09;;;19.84;42.27
64632;BME280;58358;50.936;0.246;2022-07-23T11:01:45;101406.69;;;20.91;41.25
64632;BME280;58358;50.936;0.246;2022-07-23T11:04:11;101404.06;;;21.30;39.72
64632;BME280;58358;50.936;0.246;2022-07-23T11:11:28;101413.08;;;21.21;39.84
64632;BME280;58358;50.936;0.246;2022-07-23T11:13:53;101413.57;;;20.46;40.60
64632;BME280;58358;50.936;0.246;2022-07-23T11:16:22;101405.62;;;19.95;41.48
64632;BME280;58358;50.936;0.246;2022-07-23T11:18:57;101407.65;;;19.31;42.83
64632;BME280;58358;50.936;0.246;2022-07-23T11:26:01;101408.49;;;20.05;41.56
64632;BME280;58358;50.936;0.246;2022-07-23T11:28:26;101408.30;;;21.22;39.72
64632;BME280;58358;50.936;0.246;2022-07-23T11:30:52;101412.36;;;21.49;39.62
64632;BME280;58358;50.936;0.246;2022-07-23T11:33:20;101409.28;;;21.20;39.58
64632;BME280;58358;50.936;0.246;2022-07-23T11:35:45;101405.83;;;21.38;39.33
64632;BME280;58358;50.936;0.246;2022-07-23T11:38:13;101406.91;;;20.38;40.01
64632;BME280;58358;50.936;0.246;2022-07-23T11:40:34;101414.90;;;20.53;41.04
64632;BME280;58358;50.936;0.246;2022-07-23T11:43:02;101418.31;;;20.36;41.33
64632;BME280;58358;50.936;0.246;2022-07-23T11:45:31;101415.59;;;20.28;42.02
64632;BME280;58358;50.936;0.246;2022-07-23T11:47:51;101410.96;;;20.32;41.96
64632;BME280;58358;50.936;0.246;2022-07-23T11:50:16;101419.20;;;19.82;41.33
64632;BME280;58358;50.936;0.246;2022-07-23T11:52:42;101412.94;;;20.11;42.20
64632;BME280;58358;50.936;0.246;2022-07-23T11:55:11;101412.37;;;20.19;41.13
64632;BME280;58358;50.936;0.246;2022-07-23T11:57:40;101409.41;;;20.32;40.42
64632;BME280;58358;50.936;0.246;2022-07-23T12:00:04;101402.77;;;20.68;40.92
64632;BME280;58358;50.936;0.246;2022-07-23T12:02:25;101413.26;;;20.13;40.73
64632;BME280;58358;50.936;0.246;2022-07-23T12:04:51;101420.99;;;20.26;40.07
64632;BME280;58358;50.936;0.246;2022-07-23T12:07:26;101420.30;;;20.10;41.21
64632;BME280;58358;50.936;0.246;2022-07-23T12:09:44;101428.04;;;20.87;40.06
64632;BME280;58358;50.936;0.246;2022-07-23T12:12:08;101424.66;;;20.38;40.49
64632;BME280;58358;50.936;0.246;2022-07-23T12:14:33;101419.23;;;19.76;42.62
64632;BME280;58358;50.936;0.246;2022-07-23T12:17:07;101425.46;;;19.87;42.71
64632;BME280;58358;50.936;0.246;2022-07-23T12:19:24;101416.04;;;20.21;41.33
64632;BME280;58358;50.936;0.246;2022-07-23T12:21:49;101417.56;;;19.76;42.42
64632;BME280;58358;50.936;0.246;2022-07-23T12:24:15;101423.13;;;20.44;40.50
64632;BME280;58358;50.936;0.246;2022-07-23T12:29:11;101427.17;;;20.16;39.80
64632;BME280;58358;50.936;0.246;2022-07-23T12:31:32;101426.96;;;19.90;40.60
64632;BME280;58358;50.936;0.246;2022-07-23T12:33:58;101421.37;;;19.63;41.14
64632;BME280;58358;50.936;0.246;2022-07-23T12:38:49;101415.65;;;19.88;43.21
64632;BME280;58358;50.936;0.246;2022-07-23T12:41:15;101409.96;;;20.18;40.84
64632;BME280;58358;50.936;0.246;2022-07-23T12:43:42;101415.44;;;20.16;41.13
64632;BME280;58358;50.936;0.246;2022-07-23T12:46:07;101416.62;;;20.16;39.71
64632;BME280;58358;50.936;0.246;2022-07-23T12:48:32;101417.38;;;20.11;40.19
64632;BME280;58358;50.936;0.246;2022-07-23T12:50:59;101406.67;;;19.75;42.30
64632;BME280;58358;50.936;0.246;2022-07-23T12:53:24;101404.84;;;20.29;41.19
64632;BME280;58358;50.936;0.246;2022-07-23T12:55:49;101402.97;;;19.89;39.81
64632;BME280;58358;50.936;0.246;2022-07-23T12:58:15;101407.30;;;19.98;40.97
64632;BME280;58358;50.936;0.246;2022-07-23T13:00:50;101404.88;;;20.46;38.51
64632;BME280;58358;50.936;0.246;2022-07-23T13:03:05;101395.82;;;20.38;38.90